sensor_id;sensor_type;location;lat;lon;timestamp;temperature;humidity
20670;DHT22;10494;50.868;4.180;2023-06-19T00:02:20;19.50;99.90
20670;DHT22;10494;50.868;4.180;2023-06-19T00:04:46;19.60;99.90
20670;DHT22;10494;50.868;4.180;2023-06-19T00:07:11;19.60;99.90
20670;DHT22;10494;50.868;4.180;2023-06-19T00:09:37;19.60;99.90
20670;DHT22;10494;50.868;4.180;2023-06-19T00:12:03;19.60;99.90
20670;DHT22;10494;50.868;4.180;2023-06-19T00:14:29;19.50;99.90
20670;DHT22;10494;50.868;4.180;2023-06-19T00:16:55;19.50;99.90
20670;DHT22;10494;50.868;4.180;2023-06-19T00:19:22;19.50;99.90
20670;DHT22;10494;50.868;4.180;2023-06-19T00:21:47;19.60;99.90
20670;DHT22;10494;50.868;4.180;2023-06-19T00:24:13;19.50;99.90
20670;DHT22;10494;50.868;4.180;2023-06-19T00:26:39;19.50;99.90
20670;DHT22;10494;50.868;4.180;2023-06-19T00:29:05;19.50;99.90
20670;DHT22;10494;50.868;4.180;2023-06-19T00:31:32;19.60;99.90
20670;DHT22;10494;50.868;4.180;2023-06-19T00:33:57;19.60;99.90
20670;DHT22;10494;50.868;4.180;2023-06-19T00:36:23;19.50;99.90
20670;DHT22;10494;50.868;4.180;2023-06-19T00:38:51;19.50;99.90
20670;DHT22;10494;50.868;4.180;2023-06-19T00:41:18;19.50;99.90
20670;DHT22;10494;50.868;4.180;2023-06-19T00:43:44;19.50;99.90
20670;DHT22;10494;50.868;4.180;2023-06-19T00:46:10;19.50;99.90
20670;DHT22;10494;50.868;4.180;2023-06-19T00:48:36;19.50;99.90
20670;DHT22;10494;50.868;4.180;2023-06-19T00:51:02;19.50;99.90
20670;DHT22;10494;50.868;4.180;2023-06-19T00:53:28;19.50;99.90
20670;DHT22;10494;50.868;4.180;2023-06-19T00:55:55;19.60;99.90
20670;DHT22;10494;50.868;4.180;2023-06-19T00:58:21;19.60;99.90
20670;DHT22;10494;50.868;4.180;2023-06-19T01:00:48;19.60;99.90
20670;DHT22;10494;50.868;4.180;2023-06-19T01:03:14;19.60;99.90
20670;DHT22;10494;50.868;4.180;2023-06-19T01:05:40;19.70;99.90
20670;DHT22;10494;50.868;4.180;2023-06-19T01:11:04;19.70;99.90
20670;DHT22;10494;50.868;4.180;2023-06-19T01:16:04;19.60;99.90
20670;DHT22;10494;50.868;4.180;2023-06-19T01:18:32;19.50;99.90
20670;DHT22;10494;50.868;4.180;2023-06-19T01:21:12;19.60;99.90
20670;DHT22;10494;50.868;4.180;2023-06-19T01:23:38;19.60;99.90
20670;DHT22;10494;50.868;4.180;2023-06-19T01:26:03;19.60;99.90
20670;DHT22;10494;50.868;4.180;2023-06-19T01:28:29;19.60;99.90
20670;DHT22;10494;50.868;4.180;2023-06-19T01:30:55;19.60;99.90
20670;DHT22;10494;50.868;4.180;2023-06-19T01:33:27;19.60;99.90
20670;DHT22;10494;50.868;4.180;2023-06-19T01:35:55;19.50;99.90
20670;DHT22;10494;50.868;4.180;2023-06-19T01:38:22;19.60;99.90
20670;DHT22;10494;50.868;4.180;2023-06-19T01:40:52;19.60;99.90
20670;DHT22;10494;50.868;4.180;2023-06-19T01:43:18;19.60;99.90
20670;DHT22;10494;50.868;4.180;2023-06-19T01:45:44;19.50;99.90
20670;DHT22;10494;50.868;4.180;2023-06-19T01:48:10;19.60;99.90
20670;DHT22;10494;50.868;4.180;2023-06-19T01:50:36;19.60;99.90
20670;DHT22;10494;50.868;4.180;2023-06-19T01:53:01;19.70;99.90
20670;DHT22;10494;50.868;4.180;2023-06-19T01:55:27;19.80;99.90
20670;DHT22;10494;50.868;4.180;2023-06-19T01:57:53;19.70;99.90
20670;DHT22;10494;50.868;4.180;2023-06-19T02:00:18;19.70;99.90
20670;DHT22;10494;50.868;4.180;2023-06-19T02:02:44;19.60;99.90
20670;DHT22;10494;50.868;4.180;2023-06-19T02:05:11;19.70;99.90
20670;DHT22;10494;50.868;4.180;2023-06-19T02:07:36;19.70;99.90
20670;DHT22;10494;50.868;4.180;2023-06-19T02:10:02;19.70;99.90
20670;DHT22;10494;50.868;4.180;2023-06-19T02:12:28;19.70;99.90
20670;DHT22;10494;50.868;4.180;2023-06-19T02:14:53;19.60;99.90
20670;DHT22;10494;50.868;4.180;2023-06-19T02:17:19;19.60;99.90
20670;DHT22;10494;50.868;4.180;2023-06-19T02:19:45;19.60;99.90
20670;DHT22;10494;50.868;4.180;2023-06-19T02:22:10;19.60;99.90
20670;DHT22;10494;50.868;4.180;2023-06-19T02:24:36;19.60;99.90
20670;DHT22;10494;50.868;4.180;2023-06-19T02:27:02;19.60;99.90
20670;DHT22;10494;50.868;4.180;2023-06-19T02:29:28;19.70;99.90
20670;DHT22;10494;50.868;4.180;2023-06-19T02:31:55;19.80;99.90
20670;DHT22;10494;50.868;4.180;2023-06-19T02:34:21;19.70;99.90
20670;DHT22;10494;50.868;4.180;2023-06-19T02:36:49;19.80;99.90
20670;DHT22;10494;50.868;4.180;2023-06-19T02:39:15;19.90;99.90
20670;DHT22;10494;50.868;4.180;2023-06-19T02:41:41;19.90;99.90
20670;DHT22;10494;50.868;4.180;2023-06-19T02:44:14;20.00;99.90
20670;DHT22;10494;50.868;4.180;2023-06-19T02:46:40;19.90;99.90
20670;DHT22;10494;50.868;4.180;2023-06-19T02:49:06;19.80;99.90
20670;DHT22;10494;50.868;4.180;2023-06-19T02:51:31;19.80;99.90
20670;DHT22;10494;50.868;4.180;2023-06-19T02:53:57;19.90;99.90
20670;DHT22;10494;50.868;4.180;2023-06-19T02:56:24;19.90;99.90
20670;DHT22;10494;50.868;4.180;2023-06-19T02:58:50;20.00;99.90
20670;DHT22;10494;50.868;4.180;2023-06-19T03:01:16;20.00;99.90
20670;DHT22;10494;50.868;4.180;2023-06-19T03:03:41;20.00;99.90
20670;DHT22;10494;50.868;4.180;2023-06-19T03:06:07;20.10;99.90
20670;DHT22;10494;50.868;4.180;2023-06-19T03:08:37;19.90;99.90
20670;DHT22;10494;50.868;4.180;2023-06-19T03:11:03;19.90;99.90
20670;DHT22;10494;50.868;4.180;2023-06-19T03:13:53;19.90;99.90
20670;DHT22;10494;50.868;4.180;2023-06-19T03:16:20;19.90;99.90
20670;DHT22;10494;50.868;4.180;2023-06-19T03:18:46;19.90;99.90
20670;DHT22;10494;50.868;4.180;2023-06-19T03:21:12;19.90;99.90
20670;DHT22;10494;50.868;4.180;2023-06-19T03:23:38;19.80;99.90
20670;DHT22;10494;50.868;4.180;2023-06-19T03:26:03;19.70;99.90
20670;DHT22;10494;50.868;4.180;2023-06-19T03:28:29;19.70;99.90
20670;DHT22;10494;50.868;4.180;2023-06-19T03:30:55;19.70;99.90
20670;DHT22;10494;50.868;4.180;2023-06-19T03:33:21;19.70;99.90
20670;DHT22;10494;50.868;4.180;2023-06-19T03:35:46;19.60;99.90
20670;DHT22;10494;50.868;4.180;2023-06-19T03:38:12;19.60;99.90
20670;DHT22;10494;50.868;4.180;2023-06-19T03:40:37;19.60;99.90
20670;DHT22;10494;50.868;4.180;2023-06-19T03:43:03;19.70;99.90
20670;DHT22;10494;50.868;4.180;2023-06-19T03:45:28;19.90;99.90
20670;DHT22;10494;50.868;4.180;2023-06-19T03:47:54;20.00;99.90
20670;DHT22;10494;50.868;4.180;2023-06-19T03:50:20;19.80;99.90
20670;DHT22;10494;50.868;4.180;2023-06-19T03:52:45;19.80;99.90
20670;DHT22;10494;50.868;4.180;2023-06-19T03:55:11;19.90;99.90
20670;DHT22;10494;50.868;4.180;2023-06-19T03:57:36;19.90;99.90
20670;DHT22;10494;50.868;4.180;2023-06-19T04:00:02;19.80;99.90
20670;DHT22;10494;50.868;4.180;2023-06-19T04:02:33;19.60;99.90
20670;DHT22;10494;50.868;4.180;2023-06-19T04:04:58;19.50;99.90
20670;DHT22;10494;50.868;4.180;2023-06-19T04:07:24;19.50;99.90
20670;DHT22;10494;50.868;4.180;2023-06-19T04:09:50;19.40;99.90
20670;DHT22;10494;50.868;4.180;2023-06-19T04:12:15;19.30;99.90
20670;DHT22;10494;50.868;4.180;2023-06-19T04:14:41;19.20;99.90
20670;DHT22;10494;50.868;4.180;2023-06-19T04:17:06;19.20;99.90
20670;DHT22;10494;50.868;4.180;2023-06-19T04:19:32;19.20;99.90
20670;DHT22;10494;50.868;4.180;2023-06-19T04:21:58;19.10;99.90
20670;DHT22;10494;50.868;4.180;2023-06-19T04:24:23;19.00;99.90
20670;DHT22;10494;50.868;4.180;2023-06-19T04:26:49;19.00;99.90
20670;DHT22;10494;50.868;4.180;2023-06-19T04:29:14;19.00;99.90
20670;DHT22;10494;50.868;4.180;2023-06-19T04:31:44;19.10;99.90
20670;DHT22;10494;50.868;4.180;2023-06-19T04:34:15;19.20;99.90
20670;DHT22;10494;50.868;4.180;2023-06-19T04:36:41;19.20;99.90
20670;DHT22;10494;50.868;4.180;2023-06-19T04:39:07;19.10;99.90
20670;DHT22;10494;50.868;4.180;2023-06-19T04:41:32;19.10;99.90
20670;DHT22;10494;50.868;4.180;2023-06-19T04:43:58;19.20;99.90
20670;DHT22;10494;50.868;4.180;2023-06-19T04:46:24;19.10;99.90
20670;DHT22;10494;50.868;4.180;2023-06-19T04:48:49;19.10;99.90
20670;DHT22;10494;50.868;4.180;2023-06-19T04:51:18;19.10;99.90
20670;DHT22;10494;50.868;4.180;2023-06-19T04:53:49;19.00;99.90
20670;DHT22;10494;50.868;4.180;2023-06-19T04:56:15;18.80;99.90
20670;DHT22;10494;50.868;4.180;2023-06-19T04:58:41;18.80;99.90
20670;DHT22;10494;50.868;4.180;2023-06-19T05:01:12;18.80;99.90
20670;DHT22;10494;50.868;4.180;2023-06-19T05:03:39;19.00;99.90
20670;DHT22;10494;50.868;4.180;2023-06-19T05:06:05;19.00;99.90
20670;DHT22;10494;50.868;4.180;2023-06-19T05:08:30;18.90;99.90
20670;DHT22;10494;50.868;4.180;2023-06-19T05:10:56;18.90;99.90
20670;DHT22;10494;50.868;4.180;2023-06-19T05:13:23;18.90;99.90
20670;DHT22;10494;50.868;4.180;2023-06-19T05:15:49;18.90;99.90
20670;DHT22;10494;50.868;4.180;2023-06-19T05:18:16;19.30;99.90
20670;DHT22;10494;50.868;4.180;2023-06-19T05:20:41;19.20;99.90
20670;DHT22;10494;50.868;4.180;2023-06-19T05:23:07;19.20;99.90
20670;DHT22;10494;50.868;4.180;2023-06-19T05:25:32;19.30;99.90
20670;DHT22;10494;50.868;4.180;2023-06-19T05:27:58;19.50;99.90
20670;DHT22;10494;50.868;4.180;2023-06-19T05:30:23;19.60;99.90
20670;DHT22;10494;50.868;4.180;2023-06-19T05:32:49;19.50;99.90
20670;DHT22;10494;50.868;4.180;2023-06-19T05:35:15;19.50;99.90
20670;DHT22;10494;50.868;4.180;2023-06-19T05:37:40;19.30;99.90
20670;DHT22;10494;50.868;4.180;2023-06-19T05:40:09;19.30;99.90
20670;DHT22;10494;50.868;4.180;2023-06-19T05:42:35;19.30;99.90
20670;DHT22;10494;50.868;4.180;2023-06-19T05:45:02;19.30;99.90
20670;DHT22;10494;50.868;4.180;2023-06-19T05:47:28;19.10;99.90
20670;DHT22;10494;50.868;4.180;2023-06-19T05:49:58;19.20;99.90
20670;DHT22;10494;50.868;4.180;2023-06-19T05:52:24;19.20;99.90
20670;DHT22;10494;50.868;4.180;2023-06-19T05:54:50;19.20;99.90
20670;DHT22;10494;50.868;4.180;2023-06-19T05:57:16;19.20;99.90
20670;DHT22;10494;50.868;4.180;2023-06-19T05:59:49;19.40;99.90
20670;DHT22;10494;50.868;4.180;2023-06-19T06:02:15;19.50;99.90
20670;DHT22;10494;50.868;4.180;2023-06-19T06:04:41;19.80;99.90
20670;DHT22;10494;50.868;4.180;2023-06-19T06:07:08;19.80;99.90
20670;DHT22;10494;50.868;4.180;2023-06-19T06:09:34;19.90;99.90
20670;DHT22;10494;50.868;4.180;2023-06-19T06:11:59;20.00;99.90
20670;DHT22;10494;50.868;4.180;2023-06-19T06:14:26;20.20;99.90
20670;DHT22;10494;50.868;4.180;2023-06-19T06:16:51;20.50;99.90
20670;DHT22;10494;50.868;4.180;2023-06-19T06:19:21;20.80;99.90
20670;DHT22;10494;50.868;4.180;2023-06-19T06:21:48;21.00;99.90
20670;DHT22;10494;50.868;4.180;2023-06-19T06:24:14;20.90;99.90
20670;DHT22;10494;50.868;4.180;2023-06-19T06:26:39;21.00;99.90
20670;DHT22;10494;50.868;4.180;2023-06-19T06:29:05;21.10;99.90
20670;DHT22;10494;50.868;4.180;2023-06-19T06:31:31;20.90;99.90
20670;DHT22;10494;50.868;4.180;2023-06-19T06:33:56;20.70;99.90
20670;DHT22;10494;50.868;4.180;2023-06-19T06:36:22;20.40;99.90
20670;DHT22;10494;50.868;4.180;2023-06-19T06:38:47;20.30;99.90
20670;DHT22;10494;50.868;4.180;2023-06-19T06:41:13;20.20;99.90
20670;DHT22;10494;50.868;4.180;2023-06-19T06:43:40;20.10;99.90
20670;DHT22;10494;50.868;4.180;2023-06-19T06:46:08;20.30;99.90
20670;DHT22;10494;50.868;4.180;2023-06-19T06:48:36;20.40;99.90
20670;DHT22;10494;50.868;4.180;2023-06-19T06:51:01;20.50;99.90
20670;DHT22;10494;50.868;4.180;2023-06-19T06:53:28;20.60;99.90
20670;DHT22;10494;50.868;4.180;2023-06-19T06:55:54;20.90;99.90
20670;DHT22;10494;50.868;4.180;2023-06-19T06:58:20;21.20;99.90
20670;DHT22;10494;50.868;4.180;2023-06-19T07:00:45;21.30;99.90
20670;DHT22;10494;50.868;4.180;2023-06-19T07:03:11;21.40;99.90
20670;DHT22;10494;50.868;4.180;2023-06-19T07:05:37;21.50;99.90
20670;DHT22;10494;50.868;4.180;2023-06-19T07:08:02;21.40;99.90
20670;DHT22;10494;50.868;4.180;2023-06-19T07:10:29;21.20;99.90
20670;DHT22;10494;50.868;4.180;2023-06-19T07:12:55;21.00;99.90
20670;DHT22;10494;50.868;4.180;2023-06-19T07:15:21;21.10;99.90
20670;DHT22;10494;50.868;4.180;2023-06-19T07:17:46;21.40;99.90
20670;DHT22;10494;50.868;4.180;2023-06-19T07:20:12;21.50;99.90
20670;DHT22;10494;50.868;4.180;2023-06-19T07:22:38;21.40;99.90
20670;DHT22;10494;50.868;4.180;2023-06-19T07:25:04;21.30;99.90
20670;DHT22;10494;50.868;4.180;2023-06-19T07:27:32;21.40;99.90
20670;DHT22;10494;50.868;4.180;2023-06-19T07:29:58;21.80;99.90
20670;DHT22;10494;50.868;4.180;2023-06-19T07:32:23;21.90;99.90
20670;DHT22;10494;50.868;4.180;2023-06-19T07:34:49;22.00;99.90
20670;DHT22;10494;50.868;4.180;2023-06-19T07:37:14;22.20;99.90
20670;DHT22;10494;50.868;4.180;2023-06-19T07:39:52;22.40;99.90
20670;DHT22;10494;50.868;4.180;2023-06-19T07:42:18;22.40;99.90
20670;DHT22;10494;50.868;4.180;2023-06-19T07:44:45;22.40;99.90
20670;DHT22;10494;50.868;4.180;2023-06-19T07:47:11;22.10;99.90
20670;DHT22;10494;50.868;4.180;2023-06-19T07:49:39;22.00;99.90
20670;DHT22;10494;50.868;4.180;2023-06-19T07:52:05;22.10;99.90
20670;DHT22;10494;50.868;4.180;2023-06-19T07:54:33;22.00;99.90
20670;DHT22;10494;50.868;4.180;2023-06-19T07:56:59;22.20;99.90
20670;DHT22;10494;50.868;4.180;2023-06-19T07:59:24;22.30;99.90
20670;DHT22;10494;50.868;4.180;2023-06-19T08:01:50;22.60;99.90
20670;DHT22;10494;50.868;4.180;2023-06-19T08:04:15;22.70;99.90
20670;DHT22;10494;50.868;4.180;2023-06-19T08:06:41;23.10;99.90
20670;DHT22;10494;50.868;4.180;2023-06-19T08:09:06;23.90;99.90
20670;DHT22;10494;50.868;4.180;2023-06-19T08:11:32;25.00;99.90
20670;DHT22;10494;50.868;4.180;2023-06-19T08:13:58;26.00;99.90
20670;DHT22;10494;50.868;4.180;2023-06-19T08:16:25;26.50;99.90
20670;DHT22;10494;50.868;4.180;2023-06-19T08:18:51;26.50;99.90
20670;DHT22;10494;50.868;4.180;2023-06-19T08:21:17;26.30;99.90
20670;DHT22;10494;50.868;4.180;2023-06-19T08:23:42;26.20;99.90
20670;DHT22;10494;50.868;4.180;2023-06-19T08:26:09;25.80;99.90
20670;DHT22;10494;50.868;4.180;2023-06-19T08:28:35;26.30;99.90
20670;DHT22;10494;50.868;4.180;2023-06-19T08:31:01;26.40;99.90
20670;DHT22;10494;50.868;4.180;2023-06-19T08:33:26;27.00;99.90
20670;DHT22;10494;50.868;4.180;2023-06-19T08:35:52;26.80;99.90
20670;DHT22;10494;50.868;4.180;2023-06-19T08:38:18;26.30;99.90
20670;DHT22;10494;50.868;4.180;2023-06-19T08:40:44;26.50;99.90
20670;DHT22;10494;50.868;4.180;2023-06-19T08:43:10;27.60;99.90
20670;DHT22;10494;50.868;4.180;2023-06-19T08:45:36;28.10;99.90
20670;DHT22;10494;50.868;4.180;2023-06-19T08:48:03;27.50;99.90
20670;DHT22;10494;50.868;4.180;2023-06-19T08:50:29;26.90;99.90
20670;DHT22;10494;50.868;4.180;2023-06-19T08:52:56;27.10;99.90
20670;DHT22;10494;50.868;4.180;2023-06-19T08:55:22;27.60;99.90
20670;DHT22;10494;50.868;4.180;2023-06-19T08:57:48;27.80;99.90
20670;DHT22;10494;50.868;4.180;2023-06-19T09:00:27;27.60;99.90
20670;DHT22;10494;50.868;4.180;2023-06-19T09:03:02;27.70;99.90
20670;DHT22;10494;50.868;4.180;2023-06-19T09:05:28;28.70;99.90
20670;DHT22;10494;50.868;4.180;2023-06-19T09:07:59;28.60;99.90
20670;DHT22;10494;50.868;4.180;2023-06-19T09:10:28;27.10;99.90
20670;DHT22;10494;50.868;4.180;2023-06-19T09:13:01;26.00;99.90
20670;DHT22;10494;50.868;4.180;2023-06-19T09:15:28;26.10;99.90
20670;DHT22;10494;50.868;4.180;2023-06-19T09:20:30;26.30;99.90
20670;DHT22;10494;50.868;4.180;2023-06-19T09:22:57;26.60;99.90
20670;DHT22;10494;50.868;4.180;2023-06-19T09:25:23;26.90;99.90
20670;DHT22;10494;50.868;4.180;2023-06-19T09:27:49;26.70;99.90
20670;DHT22;10494;50.868;4.180;2023-06-19T09:30:16;27.00;99.90
20670;DHT22;10494;50.868;4.180;2023-06-19T09:32:41;26.90;99.90
20670;DHT22;10494;50.868;4.180;2023-06-19T09:35:07;26.00;99.90
20670;DHT22;10494;50.868;4.180;2023-06-19T09:37:33;25.90;99.90
20670;DHT22;10494;50.868;4.180;2023-06-19T09:40:00;25.50;99.90
20670;DHT22;10494;50.868;4.180;2023-06-19T09:42:34;24.90;99.90
20670;DHT22;10494;50.868;4.180;2023-06-19T09:45:04;24.10;99.90
20670;DHT22;10494;50.868;4.180;2023-06-19T09:50:06;24.40;99.90
20670;DHT22;10494;50.868;4.180;2023-06-19T09:52:33;24.80;99.90
20670;DHT22;10494;50.868;4.180;2023-06-19T09:55:01;24.70;99.90
20670;DHT22;10494;50.868;4.180;2023-06-19T09:57:28;24.60;99.90
20670;DHT22;10494;50.868;4.180;2023-06-19T09:59:55;24.80;99.90
20670;DHT22;10494;50.868;4.180;2023-06-19T10:02:26;25.10;99.90
20670;DHT22;10494;50.868;4.180;2023-06-19T10:04:54;25.20;99.90
20670;DHT22;10494;50.868;4.180;2023-06-19T10:07:33;25.20;99.90
20670;DHT22;10494;50.868;4.180;2023-06-19T10:12:42;25.40;99.90
20670;DHT22;10494;50.868;4.180;2023-06-19T10:18:04;25.20;99.90
20670;DHT22;10494;50.868;4.180;2023-06-19T10:20:35;24.90;99.90
20670;DHT22;10494;50.868;4.180;2023-06-19T10:23:24;24.60;99.90
20670;DHT22;10494;50.868;4.180;2023-06-19T10:26:00;24.40;99.90
20670;DHT22;10494;50.868;4.180;2023-06-19T10:28:30;25.00;99.90
20670;DHT22;10494;50.868;4.180;2023-06-19T10:31:05;25.90;99.90
20670;DHT22;10494;50.868;4.180;2023-06-19T10:33:33;25.60;99.90
20670;DHT22;10494;50.868;4.180;2023-06-19T10:36:00;25.90;99.90
20670;DHT22;10494;50.868;4.180;2023-06-19T10:38:26;26.40;99.90
20670;DHT22;10494;50.868;4.180;2023-06-19T10:40:52;26.60;99.90
20670;DHT22;10494;50.868;4.180;2023-06-19T10:43:22;26.90;99.90
20670;DHT22;10494;50.868;4.180;2023-06-19T10:45:50;27.50;99.90
20670;DHT22;10494;50.868;4.180;2023-06-19T10:48:24;28.10;99.90
20670;DHT22;10494;50.868;4.180;2023-06-19T10:50:50;27.80;99.90
20670;DHT22;10494;50.868;4.180;2023-06-19T10:53:32;27.20;99.90
20670;DHT22;10494;50.868;4.180;2023-06-19T10:55:59;27.50;99.90
20670;DHT22;10494;50.868;4.180;2023-06-19T10:58:25;27.50;99.90
20670;DHT22;10494;50.868;4.180;2023-06-19T11:00:51;26.90;99.90
20670;DHT22;10494;50.868;4.180;2023-06-19T11:03:17;26.40;99.90
20670;DHT22;10494;50.868;4.180;2023-06-19T11:05:46;26.20;99.90
20670;DHT22;10494;50.868;4.180;2023-06-19T11:08:20;26.70;99.90
20670;DHT22;10494;50.868;4.180;2023-06-19T11:10:46;27.10;99.90
20670;DHT22;10494;50.868;4.180;2023-06-19T11:13:19;27.20;99.90
20670;DHT22;10494;50.868;4.180;2023-06-19T11:15:45;27.40;99.90
20670;DHT22;10494;50.868;4.180;2023-06-19T11:18:11;26.80;99.90
20670;DHT22;10494;50.868;4.180;2023-06-19T11:20:51;26.60;99.90
20670;DHT22;10494;50.868;4.180;2023-06-19T11:23:27;26.40;99.90
20670;DHT22;10494;50.868;4.180;2023-06-19T11:25:52;26.70;99.90
20670;DHT22;10494;50.868;4.180;2023-06-19T11:28:18;26.70;99.90
20670;DHT22;10494;50.868;4.180;2023-06-19T11:30:47;26.30;99.90
20670;DHT22;10494;50.868;4.180;2023-06-19T11:33:20;26.60;99.90
20670;DHT22;10494;50.868;4.180;2023-06-19T11:35:49;26.90;99.90
20670;DHT22;10494;50.868;4.180;2023-06-19T11:38:23;27.30;99.90
20670;DHT22;10494;50.868;4.180;2023-06-19T11:40:49;27.40;99.90
20670;DHT22;10494;50.868;4.180;2023-06-19T11:43:25;27.00;99.90
20670;DHT22;10494;50.868;4.180;2023-06-19T11:45:51;26.80;99.90
20670;DHT22;10494;50.868;4.180;2023-06-19T11:48:27;27.00;99.90
20670;DHT22;10494;50.868;4.180;2023-06-19T11:50:53;27.20;99.90
20670;DHT22;10494;50.868;4.180;2023-06-19T11:53:23;27.30;99.90
20670;DHT22;10494;50.868;4.180;2023-06-19T11:55:49;27.50;99.90
20670;DHT22;10494;50.868;4.180;2023-06-19T11:58:15;27.20;99.90
20670;DHT22;10494;50.868;4.180;2023-06-19T12:00:42;26.20;99.90
20670;DHT22;10494;50.868;4.180;2023-06-19T12:03:08;26.50;99.90
20670;DHT22;10494;50.868;4.180;2023-06-19T12:05:35;26.60;99.90
20670;DHT22;10494;50.868;4.180;2023-06-19T12:08:01;26.50;99.90
20670;DHT22;10494;50.868;4.180;2023-06-19T12:10:30;26.40;99.90
20670;DHT22;10494;50.868;4.180;2023-06-19T12:12:55;26.60;99.90
20670;DHT22;10494;50.868;4.180;2023-06-19T12:15:21;26.40;99.90
20670;DHT22;10494;50.868;4.180;2023-06-19T12:17:47;26.40;99.90
20670;DHT22;10494;50.868;4.180;2023-06-19T12:20:12;26.60;99.90
20670;DHT22;10494;50.868;4.180;2023-06-19T12:22:39;26.90;99.90
20670;DHT22;10494;50.868;4.180;2023-06-19T12:25:05;27.20;99.90
20670;DHT22;10494;50.868;4.180;2023-06-19T12:27:31;27.10;99.90
20670;DHT22;10494;50.868;4.180;2023-06-19T12:29:57;27.30;98.70
20670;DHT22;10494;50.868;4.180;2023-06-19T12:32:22;27.40;98.00
20670;DHT22;10494;50.868;4.180;2023-06-19T12:34:49;27.70;98.10
20670;DHT22;10494;50.868;4.180;2023-06-19T12:37:19;28.00;99.70
20670;DHT22;10494;50.868;4.180;2023-06-19T12:39:49;28.20;98.30
20670;DHT22;10494;50.868;4.180;2023-06-19T12:42:15;27.80;96.70
20670;DHT22;10494;50.868;4.180;2023-06-19T12:44:41;27.80;98.30
20670;DHT22;10494;50.868;4.180;2023-06-19T12:47:08;27.70;99.10
20670;DHT22;10494;50.868;4.180;2023-06-19T12:49:34;27.30;98.20
20670;DHT22;10494;50.868;4.180;2023-06-19T12:52:00;27.20;99.90
20670;DHT22;10494;50.868;4.180;2023-06-19T12:54:26;27.30;99.90
20670;DHT22;10494;50.868;4.180;2023-06-19T12:56:52;26.90;99.90
20670;DHT22;10494;50.868;4.180;2023-06-19T12:59:18;27.00;99.90
20670;DHT22;10494;50.868;4.180;2023-06-19T13:01:43;26.90;99.50
20670;DHT22;10494;50.868;4.180;2023-06-19T13:04:10;27.20;99.30
20670;DHT22;10494;50.868;4.180;2023-06-19T13:06:36;27.20;98.10
20670;DHT22;10494;50.868;4.180;2023-06-19T13:09:02;27.00;98.40
20670;DHT22;10494;50.868;4.180;2023-06-19T13:11:30;27.10;97.40
20670;DHT22;10494;50.868;4.180;2023-06-19T13:13:56;27.50;95.80
20670;DHT22;10494;50.868;4.180;2023-06-19T13:16:22;27.40;96.60
20670;DHT22;10494;50.868;4.180;2023-06-19T13:18:51;27.50;95.70
20670;DHT22;10494;50.868;4.180;2023-06-19T13:21:16;27.20;96.30
20670;DHT22;10494;50.868;4.180;2023-06-19T13:23:42;26.90;97.60
20670;DHT22;10494;50.868;4.180;2023-06-19T13:26:08;26.90;99.00
20670;DHT22;10494;50.868;4.180;2023-06-19T13:28:34;27.20;99.50
20670;DHT22;10494;50.868;4.180;2023-06-19T13:31:00;27.50;99.20
20670;DHT22;10494;50.868;4.180;2023-06-19T13:33:25;28.00;96.90
20670;DHT22;10494;50.868;4.180;2023-06-19T13:35:51;27.90;95.30
20670;DHT22;10494;50.868;4.180;2023-06-19T13:38:18;28.00;96.80
20670;DHT22;10494;50.868;4.180;2023-06-19T13:40:44;28.20;95.40
20670;DHT22;10494;50.868;4.180;2023-06-19T13:43:10;28.10;94.30
20670;DHT22;10494;50.868;4.180;2023-06-19T13:45:35;28.10;95.70
20670;DHT22;10494;50.868;4.180;2023-06-19T13:48:04;28.30;95.80
20670;DHT22;10494;50.868;4.180;2023-06-19T13:50:30;28.40;94.70
20670;DHT22;10494;50.868;4.180;2023-06-19T13:52:55;28.10;94.70
20670;DHT22;10494;50.868;4.180;2023-06-19T13:55:21;27.70;96.00
20670;DHT22;10494;50.868;4.180;2023-06-19T13:57:48;27.30;95.90
20670;DHT22;10494;50.868;4.180;2023-06-19T14:00:14;27.20;98.00
20670;DHT22;10494;50.868;4.180;2023-06-19T14:02:40;27.30;97.70
20670;DHT22;10494;50.868;4.180;2023-06-19T14:05:07;27.50;97.00
20670;DHT22;10494;50.868;4.180;2023-06-19T14:07:33;27.40;98.10
20670;DHT22;10494;50.868;4.180;2023-06-19T14:10:01;27.40;97.70
20670;DHT22;10494;50.868;4.180;2023-06-19T14:12:27;27.60;97.60
20670;DHT22;10494;50.868;4.180;2023-06-19T14:14:53;27.60;98.00
20670;DHT22;10494;50.868;4.180;2023-06-19T14:17:18;27.60;97.10
20670;DHT22;10494;50.868;4.180;2023-06-19T14:19:44;27.40;96.10
20670;DHT22;10494;50.868;4.180;2023-06-19T14:22:09;27.70;96.70
20670;DHT22;10494;50.868;4.180;2023-06-19T14:24:35;28.00;96.10
20670;DHT22;10494;50.868;4.180;2023-06-19T14:27:01;28.30;94.60
20670;DHT22;10494;50.868;4.180;2023-06-19T14:29:26;28.30;92.80
20670;DHT22;10494;50.868;4.180;2023-06-19T14:31:52;28.20;94.20
20670;DHT22;10494;50.868;4.180;2023-06-19T14:34:19;28.10;96.00
20670;DHT22;10494;50.868;4.180;2023-06-19T14:36:46;27.60;95.40
20670;DHT22;10494;50.868;4.180;2023-06-19T14:39:11;27.60;96.20
20670;DHT22;10494;50.868;4.180;2023-06-19T14:41:37;27.80;96.50
20670;DHT22;10494;50.868;4.180;2023-06-19T14:44:04;28.00;94.80
20670;DHT22;10494;50.868;4.180;2023-06-19T14:46:30;28.10;94.20
20670;DHT22;10494;50.868;4.180;2023-06-19T14:48:56;28.00;94.00
20670;DHT22;10494;50.868;4.180;2023-06-19T14:51:24;28.10;95.40
20670;DHT22;10494;50.868;4.180;2023-06-19T14:53:50;28.20;95.20
20670;DHT22;10494;50.868;4.180;2023-06-19T14:56:15;28.40;94.60
20670;DHT22;10494;50.868;4.180;2023-06-19T14:58:41;28.50;93.00
20670;DHT22;10494;50.868;4.180;2023-06-19T15:01:08;28.60;92.60
20670;DHT22;10494;50.868;4.180;2023-06-19T15:03:34;28.80;92.70
20670;DHT22;10494;50.868;4.180;2023-06-19T15:06:00;29.00;93.00
20670;DHT22;10494;50.868;4.180;2023-06-19T15:08:26;29.20;92.60
20670;DHT22;10494;50.868;4.180;2023-06-19T15:10:51;29.20;91.20
20670;DHT22;10494;50.868;4.180;2023-06-19T15:13:17;29.00;91.20
20670;DHT22;10494;50.868;4.180;2023-06-19T15:15:44;29.00;92.10
20670;DHT22;10494;50.868;4.180;2023-06-19T15:18:10;28.90;90.90
20670;DHT22;10494;50.868;4.180;2023-06-19T15:20:36;28.80;90.40
20670;DHT22;10494;50.868;4.180;2023-06-19T15:23:03;28.80;90.20
20670;DHT22;10494;50.868;4.180;2023-06-19T15:25:28;28.20;91.00
20670;DHT22;10494;50.868;4.180;2023-06-19T15:27:54;27.80;91.60
20670;DHT22;10494;50.868;4.180;2023-06-19T15:30:19;27.70;92.40
20670;DHT22;10494;50.868;4.180;2023-06-19T15:32:45;28.10;92.40
20670;DHT22;10494;50.868;4.180;2023-06-19T15:35:10;28.40;91.90
20670;DHT22;10494;50.868;4.180;2023-06-19T15:37:36;28.60;91.80
20670;DHT22;10494;50.868;4.180;2023-06-19T15:40:03;28.40;91.70
20670;DHT22;10494;50.868;4.180;2023-06-19T15:42:29;28.60;92.20
20670;DHT22;10494;50.868;4.180;2023-06-19T15:44:54;28.60;92.20